createdAt,value
2023-03-06T00:01:06.843Z,5.90
2023-03-06T00:03:35.026Z,5.90
2023-03-06T00:06:05.195Z,5.90
2023-03-06T00:08:32.939Z,5.90
2023-03-06T00:11:00.812Z,5.90
2023-03-06T00:13:30.688Z,5.80
2023-03-06T00:16:00.741Z,5.70
2023-03-06T00:18:29.968Z,5.90
2023-03-06T00:20:57.765Z,5.80
2023-03-06T00:23:26.249Z,5.80
2023-03-06T00:25:54.225Z,5.90
2023-03-06T00:28:22.003Z,5.90
2023-03-06T00:30:49.718Z,5.80
2023-03-06T00:33:20.897Z,5.70
2023-03-06T00:35:49.984Z,5.80
2023-03-06T00:38:17.779Z,6.00
2023-03-06T00:40:45.531Z,6.00
2023-03-06T00:43:13.768Z,5.80
2023-03-06T00:45:41.504Z,5.70
2023-03-06T00:48:09.414Z,5.80
2023-03-06T00:50:37.149Z,5.60
2023-03-06T00:53:06.217Z,5.60
2023-03-06T00:55:33.953Z,5.60
2023-03-06T00:58:01.762Z,5.50
2023-03-06T01:00:29.525Z,5.60
2023-03-06T01:02:57.241Z,5.60
2023-03-06T01:05:25.087Z,5.70
2023-03-06T01:07:52.981Z,5.70
2023-03-06T01:10:22.420Z,5.70
2023-03-06T01:12:52.946Z,5.70
2023-03-06T01:15:21.139Z,5.80
2023-03-06T01:17:49.091Z,5.70
2023-03-06T01:20:18.466Z,5.80
2023-03-06T01:22:46.388Z,5.80
2023-03-06T01:25:14.163Z,5.70
2023-03-06T01:27:43.237Z,5.70
2023-03-06T01:30:12.333Z,5.80
2023-03-06T01:32:40.339Z,5.70
2023-03-06T01:35:08.762Z,5.60
2023-03-06T01:37:36.955Z,5.70
2023-03-06T01:40:05.234Z,5.70
2023-03-06T01:42:32.965Z,5.70
2023-03-06T01:45:05.445Z,5.80
2023-03-06T01:47:33.274Z,5.90
2023-03-06T01:50:03.796Z,6.00
2023-03-06T01:52:34.218Z,6.10
2023-03-06T01:55:06.393Z,5.90
2023-03-06T01:57:37.107Z,5.70
2023-03-06T02:00:10.008Z,5.70
2023-03-06T02:02:38.430Z,5.60
2023-03-06T02:05:07.787Z,5.70
2023-03-06T02:07:37.092Z,5.60
2023-03-06T02:10:05.397Z,5.40
2023-03-06T02:12:33.561Z,5.40
2023-03-06T02:15:01.749Z,5.50
2023-03-06T02:17:30.985Z,5.60
2023-03-06T02:20:08.417Z,5.50
2023-03-06T02:22:44.482Z,5.40
2023-03-06T02:25:27.185Z,5.60
2023-03-06T02:27:54.910Z,5.50
2023-03-06T02:30:23.492Z,5.30
2023-03-06T02:32:51.208Z,5.20
2023-03-06T02:35:21.256Z,5.30
2023-03-06T02:37:49.169Z,5.40
2023-03-06T02:40:18.224Z,5.40
2023-03-06T02:42:53.171Z,5.40
2023-03-06T02:45:26.660Z,5.30
2023-03-06T02:47:54.474Z,5.30
2023-03-06T02:50:22.199Z,5.20
2023-03-06T02:52:49.992Z,5.20
2023-03-06T02:55:17.857Z,5.10
2023-03-06T02:57:45.562Z,5.10
2023-03-06T03:00:16.091Z,5.30
2023-03-06T03:02:44.602Z,5.20
2023-03-06T03:05:12.458Z,5.10
2023-03-06T03:07:40.148Z,5.20
2023-03-06T03:10:08.654Z,5.10
2023-03-06T03:12:36.393Z,5.10
2023-03-06T03:15:05.094Z,5.30
2023-03-06T03:17:36.355Z,5.40
2023-03-06T03:20:05.181Z,5.60
2023-03-06T03:22:32.932Z,5.60
2023-03-06T03:25:00.720Z,5.50
2023-03-06T03:27:28.509Z,5.50
2023-03-06T03:29:58.059Z,5.50
2023-03-06T03:32:26.161Z,5.50
2023-03-06T03:34:56.087Z,5.50
2023-03-06T03:37:24.021Z,5.40
2023-03-06T03:39:51.734Z,5.50
2023-03-06T03:42:19.460Z,5.50
2023-03-06T03:44:47.371Z,5.60
2023-03-06T03:47:15.127Z,5.50
2023-03-06T03:49:42.826Z,5.40
2023-03-06T03:52:11.914Z,5.40
2023-03-06T03:54:39.692Z,5.40
2023-03-06T03:57:07.497Z,5.40
2023-03-06T03:59:35.190Z,5.30
2023-03-06T04:02:04.679Z,5.30
2023-03-06T04:04:32.577Z,5.40
2023-03-06T04:07:00.708Z,5.50
2023-03-06T04:09:29.792Z,5.50
2023-03-06T04:11:57.526Z,5.60
2023-03-06T04:14:25.272Z,5.70
2023-03-06T04:16:53.029Z,5.60
2023-03-06T04:19:20.763Z,5.70
2023-03-06T04:21:48.542Z,5.50
2023-03-06T04:24:16.323Z,5.50
2023-03-06T04:26:45.368Z,5.50
2023-03-06T04:29:13.132Z,5.50
2023-03-06T04:31:40.880Z,5.40
2023-03-06T04:34:08.732Z,5.30
2023-03-06T04:36:37.179Z,5.20
2023-03-06T04:39:05.478Z,5.20
2023-03-06T04:41:33.236Z,5.30
2023-03-06T04:44:02.318Z,5.30
2023-03-06T04:46:30.080Z,5.20
2023-03-06T04:48:57.802Z,5.20
2023-03-06T04:51:25.478Z,5.30
2023-03-06T04:53:53.252Z,5.20
2023-03-06T04:56:20.961Z,5.20
2023-03-06T04:58:48.744Z,5.30
2023-03-06T05:01:18.411Z,5.40
2023-03-06T05:03:46.221Z,5.50
2023-03-06T05:06:13.957Z,5.50
2023-03-06T05:08:41.754Z,5.60
2023-03-06T05:11:09.431Z,5.70
2023-03-06T05:13:37.122Z,5.70
2023-03-06T05:16:05.400Z,5.50
2023-03-06T05:18:35.219Z,5.40
2023-03-06T05:21:03.071Z,5.30
2023-03-06T05:23:32.369Z,5.30
2023-03-06T05:26:00.222Z,5.30
2023-03-06T05:28:28.591Z,5.20
2023-03-06T05:30:56.393Z,5.30
2023-03-06T05:33:24.217Z,5.30
2023-03-06T05:35:53.379Z,5.40
2023-03-06T05:38:23.043Z,5.40
2023-03-06T05:40:50.790Z,5.10
2023-03-06T05:43:18.629Z,5.30
2023-03-06T05:45:46.342Z,5.20
2023-03-06T05:48:14.507Z,5.20
2023-03-06T05:50:42.209Z,5.50
2023-03-06T05:53:11.295Z,5.40
2023-03-06T05:55:39.367Z,5.60
2023-03-06T05:58:07.074Z,5.60
2023-03-06T06:00:34.782Z,5.70
2023-03-06T06:03:03.020Z,5.60
2023-03-06T06:05:30.753Z,5.40
2023-03-06T06:07:58.476Z,5.40
2023-03-06T06:10:27.591Z,5.40
2023-03-06T06:12:55.283Z,5.40
2023-03-06T06:15:22.995Z,5.50
2023-03-06T06:17:50.702Z,5.40
2023-03-06T06:20:18.633Z,5.40
2023-03-06T06:22:46.319Z,5.60
2023-03-06T06:25:14.009Z,5.50
2023-03-06T06:27:43.048Z,5.70
2023-03-06T06:30:13.032Z,5.80
2023-03-06T06:32:40.881Z,5.70
2023-03-06T06:35:09.089Z,5.80
2023-03-06T06:37:36.826Z,5.80
2023-03-06T06:40:05.742Z,5.80
2023-03-06T06:42:39.535Z,6.00
2023-03-06T06:45:10.475Z,6.00
2023-03-06T06:47:41.141Z,5.80
2023-03-06T06:50:11.471Z,5.80
2023-03-06T06:52:39.320Z,5.90
2023-03-06T06:55:07.960Z,5.90
2023-03-06T06:57:35.696Z,5.80
2023-03-06T07:00:03.696Z,5.70
2023-03-06T07:02:33.074Z,5.90
2023-03-06T07:05:04.593Z,5.90
2023-03-06T07:07:35.178Z,5.80
2023-03-06T07:10:03.510Z,5.60
2023-03-06T07:12:32.881Z,5.60
2023-03-06T07:15:00.613Z,5.50
2023-03-06T07:17:28.401Z,5.70
2023-03-06T07:19:57.514Z,5.80
2023-03-06T07:22:25.288Z,6.00
2023-03-06T07:24:52.992Z,6.00
2023-03-06T07:27:22.882Z,6.10
2023-03-06T07:29:54.011Z,6.10
2023-03-06T07:32:21.959Z,6.00
2023-03-06T07:34:49.696Z,6.00
2023-03-06T07:37:18.721Z,6.00
2023-03-06T07:39:46.634Z,6.00
2023-03-06T07:42:15.033Z,5.70
2023-03-06T07:44:43.354Z,5.60
2023-03-06T07:47:13.026Z,5.70
2023-03-06T07:49:41.041Z,5.90
2023-03-06T07:52:08.762Z,6.00
2023-03-06T07:54:37.838Z,6.00
2023-03-06T07:57:05.558Z,6.20
2023-03-06T07:59:33.242Z,6.10
2023-03-06T08:02:00.937Z,5.90
2023-03-06T08:04:30.104Z,6.20
2023-03-06T08:07:00.314Z,6.20
2023-03-06T08:09:29.118Z,6.40
2023-03-06T08:11:58.302Z,6.30
2023-03-06T08:14:26.052Z,6.20
2023-03-06T08:16:56.772Z,6.30
2023-03-06T08:19:24.563Z,6.20
2023-03-06T08:21:52.308Z,6.10
2023-03-06T08:24:20.156Z,6.30
2023-03-06T08:26:47.915Z,6.40
2023-03-06T08:29:16.923Z,6.40
2023-03-06T08:31:45.938Z,6.30
2023-03-06T08:34:16.140Z,6.10
2023-03-06T08:36:43.885Z,6.10
2023-03-06T08:39:13.008Z,6.30
2023-03-06T08:41:41.948Z,6.50
2023-03-06T08:44:09.972Z,6.70
2023-03-06T08:46:39.316Z,6.70
2023-03-06T08:49:07.082Z,6.50
2023-03-06T08:51:34.774Z,6.30
2023-03-06T08:54:02.586Z,6.40
2023-03-06T08:56:31.970Z,6.50
2023-03-06T08:59:01.957Z,6.10
2023-03-06T09:01:32.299Z,6.20
2023-03-06T09:04:03.057Z,6.30
2023-03-06T09:06:33.387Z,6.30
2023-03-06T09:09:01.273Z,6.40
2023-03-06T09:11:29.585Z,6.20
2023-03-06T09:13:58.182Z,6.30
2023-03-06T09:16:26.564Z,6.10
2023-03-06T09:18:54.367Z,6.00
2023-03-06T09:21:24.988Z,6.30
2023-03-06T09:23:53.157Z,6.20
2023-03-06T09:26:20.901Z,6.50
2023-03-06T09:28:48.614Z,6.80
2023-03-06T09:31:19.162Z,6.60
2023-03-06T09:33:47.295Z,6.50
2023-03-06T09:36:17.583Z,6.40
2023-03-06T09:38:48.239Z,6.40
2023-03-06T09:41:30.000Z,6.40
2023-03-06T09:44:04.893Z,6.10
2023-03-06T09:46:58.304Z,6.40
2023-03-06T09:49:55.141Z,6.40
2023-03-06T09:52:32.377Z,5.90
2023-03-06T09:55:10.217Z,6.00
2023-03-06T09:57:43.139Z,6.20
2023-03-06T10:00:16.121Z,6.10
2023-03-06T10:02:47.095Z,5.80
2023-03-06T10:05:20.599Z,5.60
2023-03-06T10:07:53.793Z,5.60
2023-03-06T10:10:26.522Z,5.40
2023-03-06T10:13:01.416Z,5.30
2023-03-06T10:15:32.858Z,5.40
2023-03-06T10:18:00.905Z,5.50
2023-03-06T10:20:34.730Z,5.70
2023-03-06T10:23:30.001Z,5.90
2023-03-06T10:26:02.012Z,6.10
2023-03-06T10:28:35.595Z,6.10
2023-03-06T10:31:10.637Z,6.20
2023-03-06T10:33:52.647Z,6.30
2023-03-06T10:36:22.440Z,6.30
2023-03-06T10:38:50.600Z,6.30
2023-03-06T10:41:24.662Z,6.40
2023-03-06T10:44:18.677Z,6.50
2023-03-06T10:46:48.552Z,6.30
2023-03-06T10:49:32.295Z,5.90
2023-03-06T10:52:03.549Z,5.80
2023-03-06T10:54:33.701Z,6.10
2023-03-06T10:57:20.088Z,6.20
2023-03-06T10:59:55.897Z,6.60
2023-03-06T11:02:32.749Z,6.70
2023-03-06T11:05:03.284Z,6.60
2023-03-06T11:07:32.649Z,6.70
2023-03-06T11:10:07.814Z,6.40
2023-03-06T11:12:38.317Z,6.40
2023-03-06T11:15:25.067Z,6.30
2023-03-06T11:18:05.215Z,6.40
2023-03-06T11:20:50.610Z,6.20
2023-03-06T11:23:22.782Z,6.30
2023-03-06T11:25:56.395Z,6.20
2023-03-06T11:28:29.774Z,6.50
2023-03-06T11:31:02.819Z,6.50
2023-03-06T11:33:36.074Z,6.60
2023-03-06T11:36:13.840Z,6.60
2023-03-06T11:38:48.912Z,6.80
2023-03-06T11:41:24.970Z,6.70
2023-03-06T11:44:02.065Z,6.70
2023-03-06T11:46:35.233Z,6.50
2023-03-06T11:49:14.307Z,6.70
2023-03-06T11:51:44.989Z,6.80
2023-03-06T11:54:14.685Z,7.10
2023-03-06T11:56:51.448Z,7.20
2023-03-06T11:59:51.913Z,7.10
2023-03-06T12:02:30.189Z,6.80
2023-03-06T12:05:12.213Z,6.60
2023-03-06T12:07:49.598Z,6.50
2023-03-06T12:10:23.262Z,6.40
2023-03-06T12:13:10.231Z,6.60
2023-03-06T12:16:19.908Z,6.60
2023-03-06T12:18:56.926Z,6.30
2023-03-06T12:21:34.733Z,6.00
2023-03-06T12:24:10.670Z,6.00
2023-03-06T12:26:50.117Z,6.10
2023-03-06T12:29:42.351Z,6.10
2023-03-06T12:32:23.487Z,6.30
2023-03-06T12:35:06.158Z,6.40
2023-03-06T12:37:44.320Z,6.10
2023-03-06T12:40:36.806Z,5.90
2023-03-06T12:43:37.761Z,6.10
2023-03-06T12:46:13.480Z,6.20
2023-03-06T12:48:48.319Z,6.10
2023-03-06T12:51:20.644Z,5.40
2023-03-06T12:53:50.460Z,5.20
2023-03-06T12:56:20.777Z,5.20
2023-03-06T12:58:50.901Z,5.20
2023-03-06T13:01:53.944Z,5.20
2023-03-06T13:04:43.713Z,5.30
2023-03-06T13:07:34.373Z,5.40
2023-03-06T13:10:09.746Z,5.30
2023-03-06T13:12:50.458Z,5.30
2023-03-06T13:15:34.460Z,5.30
2023-03-06T13:18:02.348Z,5.30
2023-03-06T13:20:35.845Z,5.30
2023-03-06T13:23:40.960Z,5.30
2023-03-06T13:26:11.543Z,5.30
2023-03-06T13:28:46.153Z,5.30
2023-03-06T13:31:26.593Z,5.10
2023-03-06T13:33:58.602Z,5.00
2023-03-06T13:36:33.060Z,5.00
2023-03-06T13:39:06.657Z,5.00
2023-03-06T13:41:53.859Z,5.00
2023-03-06T13:44:45.941Z,4.90
2023-03-06T13:48:06.526Z,4.80
2023-03-06T13:50:34.664Z,4.70
2023-03-06T13:53:40.642Z,4.70
2023-03-06T13:56:24.817Z,4.60
2023-03-06T13:59:07.759Z,4.80
2023-03-06T14:01:48.274Z,5.00
2023-03-06T14:04:43.359Z,5.10
2023-03-06T14:07:26.676Z,5.20
2023-03-06T14:10:22.304Z,5.40
2023-03-06T14:13:02.696Z,5.00
2023-03-06T14:15:37.566Z,4.70
2023-03-06T14:18:07.874Z,4.40
2023-03-06T14:20:43.253Z,4.60
2023-03-06T14:23:29.414Z,4.80
2023-03-06T14:26:07.244Z,4.80
2023-03-06T14:28:36.280Z,4.40
2023-03-06T14:31:07.729Z,4.50
2023-03-06T14:33:43.458Z,4.60
2023-03-06T14:36:14.997Z,4.80
2023-03-06T14:38:46.400Z,4.80
2023-03-06T14:41:24.716Z,4.80
2023-03-06T14:43:52.454Z,4.80
2023-03-06T14:46:22.446Z,5.00
2023-03-06T14:48:50.805Z,5.10
2023-03-06T14:51:21.046Z,4.90
2023-03-06T14:53:50.840Z,5.00
2023-03-06T14:56:22.155Z,5.00
2023-03-06T14:58:55.114Z,5.10
2023-03-06T15:01:27.983Z,5.20
2023-03-06T15:03:59.141Z,5.40
2023-03-06T15:06:29.709Z,5.50
2023-03-06T15:09:04.748Z,5.50
2023-03-06T15:11:55.781Z,5.70
2023-03-06T15:14:31.178Z,5.70
2023-03-06T15:17:22.428Z,5.60
2023-03-06T15:19:52.158Z,5.70
2023-03-06T15:22:32.315Z,5.70
2023-03-06T15:25:26.739Z,5.80
2023-03-06T15:27:57.748Z,5.70
2023-03-06T15:30:28.789Z,5.80
2023-03-06T15:33:23.143Z,5.80
2023-03-06T15:35:56.995Z,5.60
2023-03-06T15:38:30.704Z,5.40
2023-03-06T15:41:00.791Z,5.40
2023-03-06T15:43:35.238Z,5.70
2023-03-06T15:46:05.176Z,5.80
2023-03-06T15:48:33.770Z,5.90
2023-03-06T15:51:02.574Z,5.70
2023-03-06T15:53:30.561Z,5.70
2023-03-06T15:56:00.406Z,5.60
2023-03-06T15:58:39.568Z,5.70
2023-03-06T16:01:19.528Z,5.60
2023-03-06T16:03:57.068Z,5.70
2023-03-06T16:06:30.811Z,5.80
2023-03-06T16:08:58.539Z,5.80
2023-03-06T16:11:41.907Z,5.80
2023-03-06T16:14:23.695Z,5.80
2023-03-06T16:16:52.635Z,5.80
2023-03-06T16:19:26.868Z,5.80
2023-03-06T16:21:55.741Z,5.60
2023-03-06T16:24:24.732Z,5.70
2023-03-06T16:26:54.808Z,5.30
2023-03-06T16:29:27.544Z,5.20
2023-03-06T16:31:56.891Z,5.40
2023-03-06T16:34:25.412Z,5.60
2023-03-06T16:36:53.735Z,5.70
2023-03-06T16:39:23.482Z,5.70
2023-03-06T16:41:51.633Z,5.80
2023-03-06T16:44:19.813Z,5.80
2023-03-06T16:46:50.859Z,5.90
2023-03-06T16:49:19.763Z,6.00
2023-03-06T16:51:47.949Z,5.90
2023-03-06T16:54:15.726Z,6.00
2023-03-06T16:56:44.200Z,6.10
2023-03-06T16:59:13.108Z,6.10
2023-03-06T17:01:42.938Z,6.10
2023-03-06T17:04:12.265Z,6.00
2023-03-06T17:06:41.401Z,5.70
2023-03-06T17:09:10.687Z,5.50
2023-03-06T17:11:39.364Z,5.50
2023-03-06T17:14:07.185Z,5.40
2023-03-06T17:16:36.927Z,5.20
2023-03-06T17:19:04.637Z,5.20
2023-03-06T17:21:35.302Z,5.20
2023-03-06T17:24:03.739Z,5.20
2023-03-06T17:26:31.805Z,5.20
2023-03-06T17:28:59.899Z,5.40
2023-03-06T17:31:29.076Z,5.40
2023-03-06T17:34:00.405Z,5.50
2023-03-06T17:36:28.813Z,5.40
2023-03-06T17:38:58.672Z,5.40
2023-03-06T17:41:27.388Z,5.40
2023-03-06T17:43:57.730Z,5.40
2023-03-06T17:46:29.189Z,5.30
2023-03-06T17:48:57.294Z,5.40
2023-03-06T17:51:25.005Z,5.40
2023-03-06T17:53:53.200Z,5.40
2023-03-06T17:56:22.318Z,5.30
2023-03-06T17:58:50.024Z,5.30
2023-03-06T18:01:20.438Z,5.30
2023-03-06T18:03:49.788Z,5.20
2023-03-06T18:06:18.614Z,5.20
2023-03-06T18:08:46.682Z,5.10
2023-03-06T18:11:15.766Z,5.20
2023-03-06T18:13:46.333Z,5.30
2023-03-06T18:16:17.311Z,5.30
2023-03-06T18:18:45.294Z,5.20
2023-03-06T18:21:16.126Z,5.20
2023-03-06T18:23:44.136Z,5.10
2023-03-06T18:26:14.004Z,5.20
2023-03-06T18:28:44.900Z,5.10
2023-03-06T18:31:17.077Z,5.20
2023-03-06T18:33:44.907Z,5.10
2023-03-06T18:36:12.816Z,5.10
2023-03-06T18:38:41.413Z,5.10
2023-03-06T18:41:09.697Z,5.00
2023-03-06T18:43:38.291Z,5.00
2023-03-06T18:46:07.730Z,5.00
2023-03-06T18:48:35.937Z,5.00
2023-03-06T18:51:07.621Z,4.90
2023-03-06T18:53:35.669Z,4.90
2023-03-06T18:56:04.249Z,4.80
2023-03-06T18:58:31.982Z,4.70
2023-03-06T19:01:02.124Z,4.70
2023-03-06T19:03:31.224Z,4.60
2023-03-06T19:05:59.299Z,4.60
2023-03-06T19:08:27.167Z,4.70
2023-03-06T19:10:56.283Z,4.80
2023-03-06T19:13:24.249Z,4.90
2023-03-06T19:15:56.568Z,4.80
2023-03-06T19:18:26.041Z,4.90
2023-03-06T19:20:56.390Z,4.90
2023-03-06T19:23:24.240Z,4.90
2023-03-06T19:25:58.677Z,4.80
2023-03-06T19:28:27.274Z,4.90
2023-03-06T19:30:54.985Z,4.90
2023-03-06T19:33:22.804Z,4.90
2023-03-06T19:35:50.543Z,4.80
2023-03-06T19:38:19.744Z,4.70
2023-03-06T19:40:51.034Z,4.80
2023-03-06T19:43:18.774Z,4.90
2023-03-06T19:45:46.686Z,4.80
2023-03-06T19:48:14.521Z,4.70
2023-03-06T19:50:42.258Z,4.70
2023-03-06T19:53:11.293Z,4.50
2023-03-06T19:55:40.594Z,4.50
2023-03-06T19:58:09.134Z,4.50
2023-03-06T20:00:36.908Z,4.60
2023-03-06T20:03:04.863Z,4.60
2023-03-06T20:05:32.654Z,4.50
2023-03-06T20:08:00.442Z,4.60
2023-03-06T20:10:28.210Z,4.50
2023-03-06T20:12:57.277Z,4.60
2023-03-06T20:15:26.170Z,4.50
2023-03-06T20:17:56.405Z,4.40
2023-03-06T20:20:24.427Z,4.40
2023-03-06T20:22:52.143Z,4.40
2023-03-06T20:25:20.346Z,4.40
2023-03-06T20:27:48.122Z,4.50
2023-03-06T20:30:18.022Z,4.60
2023-03-06T20:32:45.779Z,4.50
2023-03-06T20:35:13.648Z,4.40
2023-03-06T20:37:41.675Z,4.20
2023-03-06T20:40:10.992Z,4.20
2023-03-06T20:42:38.758Z,4.10
2023-03-06T20:45:07.789Z,4.10
2023-03-06T20:47:36.852Z,4.20
2023-03-06T20:50:05.041Z,4.20
2023-03-06T20:52:33.500Z,4.10
2023-03-06T20:55:01.331Z,4.10
2023-03-06T20:57:29.040Z,4.10
2023-03-06T20:59:56.741Z,4.00
2023-03-06T21:02:24.490Z,3.90
2023-03-06T21:04:53.547Z,3.90
2023-03-06T21:07:21.493Z,3.90
2023-03-06T21:09:49.714Z,3.90
2023-03-06T21:12:17.502Z,4.00
2023-03-06T21:14:45.197Z,4.00
2023-03-06T21:17:13.926Z,3.90
2023-03-06T21:19:42.348Z,3.60
2023-03-06T21:22:11.466Z,3.50
2023-03-06T21:24:39.221Z,3.80
2023-03-06T21:27:07.007Z,3.90
2023-03-06T21:29:34.706Z,4.00
2023-03-06T21:32:02.451Z,4.20
2023-03-06T21:34:30.176Z,4.20
2023-03-06T21:36:57.936Z,4.30
2023-03-06T21:39:27.262Z,4.30
2023-03-06T21:41:54.959Z,4.40
2023-03-06T21:44:22.775Z,4.50
2023-03-06T21:46:50.534Z,4.50
2023-03-06T21:49:18.434Z,4.70
2023-03-06T21:51:46.188Z,4.60
2023-03-06T21:54:14.235Z,4.60
2023-03-06T21:56:43.290Z,4.60
2023-03-06T21:59:11.124Z,4.60
2023-03-06T22:01:38.955Z,4.60
2023-03-06T22:04:06.915Z,4.50
2023-03-06T22:06:35.267Z,4.50
2023-03-06T22:09:04.348Z,4.80
2023-03-06T22:11:36.944Z,4.90
2023-03-06T22:14:09.263Z,4.90
2023-03-06T22:16:39.930Z,5.10
2023-03-06T22:19:08.171Z,5.10
2023-03-06T22:21:36.094Z,5.00
2023-03-06T22:24:04.521Z,5.20
2023-03-06T22:26:32.305Z,5.20
2023-03-06T22:29:00.121Z,5.20
2023-03-06T22:31:30.194Z,5.20
2023-03-06T22:33:59.887Z,5.20
2023-03-06T22:36:30.166Z,5.20
2023-03-06T22:39:02.206Z,5.00
2023-03-06T22:41:31.657Z,5.20
2023-03-06T22:44:02.148Z,5.30
2023-03-06T22:46:32.938Z,5.10
2023-03-06T22:49:01.905Z,4.90
2023-03-06T22:51:30.389Z,5.00
2023-03-06T22:54:01.370Z,4.90
2023-03-06T22:56:30.790Z,5.10
2023-03-06T22:58:59.594Z,5.20
2023-03-06T23:01:30.158Z,5.00
2023-03-06T23:04:01.056Z,4.90
2023-03-06T23:06:32.584Z,5.10
2023-03-06T23:09:06.643Z,5.30
2023-03-06T23:11:37.798Z,5.50
2023-03-06T23:14:06.004Z,5.40
2023-03-06T23:16:34.247Z,5.60
2023-03-06T23:19:05.912Z,5.70
2023-03-06T23:21:34.136Z,5.50
2023-03-06T23:24:02.335Z,5.50
2023-03-06T23:26:34.015Z,5.60
2023-03-06T23:29:02.418Z,5.60
2023-03-06T23:31:31.487Z,5.40
2023-03-06T23:34:00.957Z,5.40
2023-03-06T23:36:31.118Z,5.50
2023-03-06T23:38:59.401Z,5.50
2023-03-06T23:41:28.495Z,5.40
2023-03-06T23:43:56.231Z,5.50
2023-03-06T23:46:24.980Z,5.50
2023-03-06T23:48:53.418Z,5.50
2023-03-06T23:51:22.967Z,5.40
2023-03-06T23:53:56.942Z,5.10
2023-03-06T23:56:25.211Z,5.20
2023-03-06T23:58:53.257Z,5.20
